createdAt,value
2018-11-05T00:00:36.733Z,14.53
2018-11-05T00:03:06.232Z,14.93
2018-11-05T00:05:35.090Z,14.97
2018-11-05T00:08:04.004Z,14.63
2018-11-05T00:10:32.541Z,14.50
2018-11-05T00:13:01.192Z,14.67
2018-11-05T00:15:29.610Z,16.27
2018-11-05T00:17:58.377Z,14.30
2018-11-05T00:20:27.058Z,15.37
2018-11-05T00:22:55.848Z,14.67
2018-11-05T00:25:24.494Z,15.33
2018-11-05T00:27:53.217Z,15.80
2018-11-05T00:30:22.068Z,14.80
2018-11-05T00:32:50.517Z,14.07
2018-11-05T00:35:19.156Z,14.60
2018-11-05T00:37:47.757Z,14.87
2018-11-05T00:40:16.847Z,15.70
2018-11-05T00:42:46.037Z,14.00
2018-11-05T00:45:15.205Z,15.73
2018-11-05T00:47:44.321Z,13.73
2018-11-05T00:50:14.339Z,13.93
2018-11-05T00:52:43.094Z,13.73
2018-11-05T00:55:12.239Z,14.53
2018-11-05T00:57:40.905Z,14.38
2018-11-05T01:00:11.085Z,14.37
2018-11-05T01:02:40.219Z,13.80
2018-11-05T01:05:11.454Z,14.60
2018-11-05T01:07:40.663Z,12.90
2018-11-05T01:10:10.441Z,14.40
2018-11-05T01:12:39.375Z,15.33
2018-11-05T01:15:10.024Z,14.73
2018-11-05T01:17:39.287Z,15.27
2018-11-05T01:20:09.696Z,20.43
2018-11-05T01:22:38.850Z,16.80
2018-11-05T01:25:08.075Z,15.53
2018-11-05T01:27:37.102Z,15.70
2018-11-05T01:30:07.778Z,14.27
2018-11-05T01:32:36.569Z,13.33
2018-11-05T01:35:07.658Z,12.60
2018-11-05T01:37:36.185Z,13.47
2018-11-05T01:40:06.641Z,13.65
2018-11-05T01:42:35.515Z,14.50
2018-11-05T01:45:04.498Z,16.00
2018-11-05T01:47:33.278Z,14.10
2018-11-05T01:50:02.074Z,13.60
2018-11-05T01:52:30.763Z,13.50
2018-11-05T01:54:59.289Z,12.97
2018-11-05T01:57:27.944Z,13.20
2018-11-05T01:59:57.540Z,12.30
2018-11-05T02:02:26.226Z,13.93
2018-11-05T02:04:54.679Z,12.70
2018-11-05T02:07:23.583Z,12.03
2018-11-05T02:09:52.522Z,12.47
2018-11-05T02:12:21.161Z,11.57
2018-11-05T02:14:49.876Z,12.70
2018-11-05T02:17:18.464Z,12.37
2018-11-05T02:19:47.161Z,12.87
2018-11-05T02:22:15.716Z,13.60
2018-11-05T02:24:44.468Z,12.30
2018-11-05T02:27:13.116Z,13.20
2018-11-05T02:29:41.621Z,11.90
2018-11-05T02:32:10.351Z,11.73
2018-11-05T02:34:38.876Z,11.27
2018-11-05T02:37:07.510Z,11.83
2018-11-05T02:39:36.123Z,11.87
2018-11-05T02:42:04.762Z,10.80
2018-11-05T02:44:33.638Z,10.82
2018-11-05T02:47:02.129Z,10.83
2018-11-05T02:49:31.112Z,10.00
2018-11-05T02:51:59.809Z,11.10
2018-11-05T02:54:28.193Z,10.27
2018-11-05T02:56:57.067Z,9.90
2018-11-05T02:59:25.650Z,10.90
2018-11-05T03:01:54.134Z,10.63
2018-11-05T03:04:22.778Z,11.90
2018-11-05T03:06:51.392Z,10.60
2018-11-05T03:09:20.133Z,12.17
2018-11-05T03:11:48.735Z,12.03
2018-11-05T03:14:17.257Z,12.73
2018-11-05T03:16:45.900Z,13.07
2018-11-05T03:19:14.756Z,17.20
2018-11-05T03:21:43.565Z,16.23
2018-11-05T03:24:12.217Z,15.17
2018-11-05T03:26:41.334Z,15.27
2018-11-05T03:29:09.859Z,15.50
2018-11-05T03:31:38.608Z,14.98
2018-11-05T03:34:07.250Z,14.67
2018-11-05T03:36:35.950Z,16.50
2018-11-05T03:39:07.990Z,15.60
2018-11-05T03:41:36.688Z,17.60
2018-11-05T03:44:06.023Z,15.73
2018-11-05T03:46:34.960Z,15.83
2018-11-05T03:49:03.903Z,12.87
2018-11-05T03:51:32.822Z,12.53
2018-11-05T03:54:01.435Z,12.97
2018-11-05T03:56:30.014Z,13.00
2018-11-05T03:58:58.752Z,12.87
2018-11-05T04:01:27.371Z,13.60
2018-11-05T04:03:55.869Z,13.47
2018-11-05T04:06:24.691Z,14.10
2018-11-05T04:08:53.494Z,12.97
2018-11-05T04:11:22.382Z,14.10
2018-11-05T04:13:51.199Z,12.50
2018-11-05T04:16:19.735Z,13.80
2018-11-05T04:18:48.372Z,14.87
2018-11-05T04:21:17.012Z,13.90
2018-11-05T04:23:45.346Z,14.07
2018-11-05T04:26:13.942Z,19.17
2018-11-05T04:28:42.568Z,18.07
2018-11-05T04:31:11.292Z,19.67
2018-11-05T04:33:39.872Z,16.23
2018-11-05T04:36:08.345Z,15.03
2018-11-05T04:38:37.366Z,15.73
2018-11-05T04:41:06.589Z,15.67
2018-11-05T04:43:35.326Z,14.85
2018-11-05T04:46:03.797Z,13.53
2018-11-05T04:48:32.512Z,13.17
2018-11-05T04:51:01.248Z,14.03
2018-11-05T04:53:29.875Z,13.40
2018-11-05T04:55:58.373Z,14.40
2018-11-05T04:58:26.837Z,12.63
2018-11-05T05:00:55.313Z,12.90
2018-11-05T05:03:23.791Z,13.20
2018-11-05T05:05:52.323Z,14.20
2018-11-05T05:08:20.984Z,13.90
2018-11-05T05:10:49.452Z,13.80
2018-11-05T05:13:17.971Z,12.90
2018-11-05T05:15:46.439Z,12.58
2018-11-05T05:18:14.941Z,13.83
2018-11-05T05:20:43.458Z,13.43
2018-11-05T05:23:12.169Z,12.53
2018-11-05T05:25:40.846Z,12.27
2018-11-05T05:28:09.741Z,13.73
2018-11-05T05:30:38.451Z,14.00
2018-11-05T05:33:07.235Z,16.70
2018-11-05T05:35:35.687Z,14.07
2018-11-05T05:38:04.238Z,15.72
2018-11-05T05:40:32.961Z,13.00
2018-11-05T05:43:01.646Z,14.40
2018-11-05T05:45:30.302Z,15.13
2018-11-05T05:47:58.830Z,14.87
2018-11-05T05:50:27.478Z,14.35
2018-11-05T05:52:56.058Z,17.33
2018-11-05T05:55:24.594Z,15.70
2018-11-05T05:57:53.171Z,14.57
2018-11-05T06:00:21.754Z,15.90
2018-11-05T06:02:50.450Z,15.30
2018-11-05T06:05:19.218Z,17.30
2018-11-05T06:07:47.746Z,16.70
2018-11-05T06:10:16.631Z,13.93
2018-11-05T06:12:45.650Z,13.27
2018-11-05T06:15:15.484Z,10.40
2018-11-05T06:17:44.184Z,11.27
2018-11-05T06:20:15.313Z,11.28
2018-11-05T06:22:45.105Z,10.80
2018-11-05T06:25:13.683Z,12.60
2018-11-05T06:27:42.706Z,13.70
2018-11-05T06:30:15.607Z,11.93
2018-11-05T06:32:45.427Z,10.53
2018-11-05T06:35:14.700Z,11.90
2018-11-05T06:37:43.534Z,10.10
2018-11-05T06:40:14.136Z,10.33
2018-11-05T06:42:43.358Z,11.40
2018-11-05T06:45:14.669Z,10.30
2018-11-05T06:47:44.618Z,10.10
2018-11-05T06:50:15.469Z,10.87
2018-11-05T06:52:45.191Z,9.43
2018-11-05T06:55:15.731Z,9.70
2018-11-05T06:57:45.112Z,9.83
2018-11-05T07:00:18.323Z,9.00
2018-11-05T07:02:47.814Z,10.43
2018-11-05T07:05:17.498Z,8.65
2018-11-05T07:07:46.678Z,9.33
2018-11-05T07:10:17.627Z,8.70
2018-11-05T07:12:46.999Z,9.85
2018-11-05T07:15:17.521Z,9.10
2018-11-05T07:17:47.758Z,9.10
2018-11-05T07:20:17.911Z,10.47
2018-11-05T07:22:47.661Z,9.40
2018-11-05T07:25:16.696Z,7.87
2018-11-05T07:27:46.059Z,7.43
2018-11-05T07:30:17.100Z,8.60
2018-11-05T07:32:46.780Z,8.80
2018-11-05T07:35:16.166Z,9.10
2018-11-05T07:37:45.367Z,9.37
2018-11-05T07:40:15.527Z,9.03
2018-11-05T07:42:44.931Z,10.43
2018-11-05T07:45:16.162Z,9.77
2018-11-05T07:47:48.085Z,10.80
2018-11-05T07:50:18.098Z,10.13
2018-11-05T07:52:46.899Z,13.53
2018-11-05T07:55:17.303Z,10.98
2018-11-05T07:57:47.030Z,12.27
2018-11-05T08:00:21.956Z,13.40
2018-11-05T08:02:52.754Z,12.18
2018-11-05T08:05:23.625Z,11.57
2018-11-05T08:07:52.998Z,9.37
2018-11-05T08:10:22.374Z,11.20
2018-11-05T08:12:51.665Z,11.07
2018-11-05T08:15:23.633Z,9.50
2018-11-05T08:17:54.043Z,10.47
2018-11-05T08:20:23.358Z,8.93
2018-11-05T08:22:53.494Z,9.00
2018-11-05T08:25:23.047Z,7.50
2018-11-05T08:27:51.884Z,7.27
2018-11-05T08:30:22.138Z,7.60
2018-11-05T08:32:51.184Z,8.30
2018-11-05T08:35:20.284Z,8.20
2018-11-05T08:37:50.535Z,8.80
2018-11-05T08:40:22.018Z,9.70
2018-11-05T08:42:52.702Z,10.60
2018-11-05T08:45:22.909Z,9.60
2018-11-05T08:47:52.010Z,9.83
2018-11-05T08:50:22.582Z,9.90
2018-11-05T08:52:51.858Z,9.40
2018-11-05T08:55:21.931Z,9.97
2018-11-05T08:57:51.081Z,8.90
2018-11-05T09:00:25.837Z,8.53
2018-11-05T09:02:55.147Z,10.17
2018-11-05T09:05:27.669Z,8.90
2018-11-05T09:07:56.817Z,9.10
2018-11-05T09:10:25.948Z,8.93
2018-11-05T09:12:55.039Z,11.17
2018-11-05T09:15:24.320Z,9.73
2018-11-05T09:17:53.804Z,10.10
2018-11-05T09:20:22.727Z,10.53
2018-11-05T09:22:52.443Z,11.30
2018-11-05T09:25:21.191Z,17.57
2018-11-05T09:27:50.789Z,22.58
2018-11-05T09:30:21.986Z,14.77
2018-11-05T09:32:50.867Z,11.90
2018-11-05T09:35:19.726Z,12.00
2018-11-05T09:37:48.636Z,11.25
2018-11-05T09:40:19.095Z,11.43
2018-11-05T09:42:48.557Z,11.37
2018-11-05T09:45:19.658Z,12.60
2018-11-05T09:47:49.045Z,14.10
2018-11-05T09:50:18.680Z,12.00
2018-11-05T09:52:48.545Z,12.70
2018-11-05T09:55:17.785Z,12.70
2018-11-05T09:57:47.851Z,11.47
2018-11-05T10:00:18.537Z,12.30
2018-11-05T10:02:52.742Z,11.53
2018-11-05T10:05:21.425Z,11.03
2018-11-05T10:07:50.144Z,13.10
2018-11-05T10:10:19.287Z,11.10
2018-11-05T10:12:48.293Z,12.30
2018-11-05T10:15:17.949Z,12.13
2018-11-05T10:17:47.249Z,11.47
2018-11-05T10:20:17.964Z,12.40
2018-11-05T10:22:47.267Z,11.93
2018-11-05T10:25:16.603Z,11.73
2018-11-05T10:27:46.082Z,11.80
2018-11-05T10:30:18.470Z,12.70
2018-11-05T10:32:47.711Z,12.17
2018-11-05T10:35:17.304Z,14.00
2018-11-05T10:37:46.418Z,15.30
2018-11-05T10:40:17.581Z,13.80
2018-11-05T10:42:47.404Z,13.43
2018-11-05T10:45:17.683Z,14.20
2018-11-05T10:47:47.183Z,12.70
2018-11-05T10:50:17.305Z,13.73
2018-11-05T10:52:48.549Z,13.20
2018-11-05T10:55:17.716Z,14.00
2018-11-05T10:57:47.121Z,17.10
2018-11-05T11:00:24.351Z,13.40
2018-11-05T11:03:00.688Z,13.60
2018-11-05T11:05:30.853Z,12.87
2018-11-05T11:08:02.955Z,12.77
2018-11-05T11:10:34.194Z,13.45
2018-11-05T11:13:03.902Z,13.87
2018-11-05T11:15:33.230Z,11.95
2018-11-05T11:18:02.557Z,13.15
2018-11-05T11:20:31.902Z,11.97
2018-11-05T11:23:00.977Z,12.97
2018-11-05T11:25:30.278Z,13.70
2018-11-05T11:27:59.332Z,13.00
2018-11-05T11:30:28.140Z,12.80
2018-11-05T11:32:57.175Z,13.03
2018-11-05T11:35:27.487Z,13.10
2018-11-05T11:37:56.655Z,12.80
2018-11-05T11:40:44.467Z,12.70
2018-11-05T11:43:14.058Z,11.73
2018-11-05T11:45:44.405Z,12.03
2018-11-05T11:48:16.752Z,12.47
2018-11-05T11:50:55.222Z,12.60
2018-11-05T11:53:28.228Z,11.07
2018-11-05T11:55:59.602Z,12.50
2018-11-05T11:58:36.816Z,12.00
2018-11-05T12:04:00.053Z,12.07
2018-11-05T12:06:33.214Z,11.90
2018-11-05T12:12:17.857Z,11.73
2018-11-05T12:15:09.359Z,12.83
2018-11-05T12:17:41.047Z,11.30
2018-11-05T12:20:16.237Z,11.43
2018-11-05T12:22:47.300Z,11.03
2018-11-05T12:25:27.515Z,11.73
2018-11-05T12:28:40.066Z,12.33
2018-11-05T12:31:11.317Z,12.66
2018-11-05T12:33:44.111Z,12.55
2018-11-05T12:36:21.015Z,12.83
2018-11-05T12:38:54.150Z,11.80
2018-11-05T12:41:27.515Z,11.40
2018-11-05T12:44:04.673Z,12.23
2018-11-05T12:46:57.496Z,11.83
2018-11-05T12:49:29.020Z,13.07
2018-11-05T12:52:16.425Z,12.93
2018-11-05T12:54:46.324Z,12.53
2018-11-05T12:57:16.024Z,13.60
2018-11-05T12:59:45.584Z,11.80
2018-11-05T13:02:21.898Z,12.30
2018-11-05T13:07:47.196Z,12.40
2018-11-05T13:10:17.023Z,12.90
2018-11-05T13:12:49.538Z,12.43
2018-11-05T13:15:19.269Z,12.20
2018-11-05T13:17:53.076Z,10.60
2018-11-05T13:20:30.613Z,11.20
2018-11-05T13:23:02.383Z,10.23
2018-11-05T13:28:45.254Z,11.00
2018-11-05T13:31:31.758Z,10.53
2018-11-05T13:34:26.447Z,9.70
2018-11-05T13:39:50.671Z,11.55
2018-11-05T13:45:25.048Z,33.70
2018-11-05T13:48:04.787Z,9.33
2018-11-05T13:50:37.729Z,10.77
2018-11-05T13:55:53.360Z,9.88
2018-11-05T13:58:36.901Z,10.33
2018-11-05T14:01:26.906Z,8.40
2018-11-05T14:08:17.049Z,7.72
2018-11-05T14:10:55.486Z,6.93
2018-11-05T14:20:29.418Z,7.17
2018-11-05T14:51:30.906Z,7.20
2018-11-05T14:54:05.714Z,7.40
2018-11-05T14:56:35.189Z,7.87
2018-11-05T14:59:05.747Z,7.13
2018-11-05T15:01:39.794Z,8.90
2018-11-05T15:04:09.421Z,7.50
2018-11-05T15:06:39.541Z,7.07
2018-11-05T15:09:13.630Z,7.87
2018-11-05T15:11:43.530Z,7.30
2018-11-05T15:14:16.663Z,7.50
2018-11-05T15:16:52.630Z,6.80
2018-11-05T15:19:22.623Z,6.57
2018-11-05T15:22:06.678Z,9.10
2018-11-05T15:24:36.165Z,8.68
2018-11-05T15:27:05.866Z,8.20
2018-11-05T15:29:40.211Z,7.30
2018-11-05T15:32:15.806Z,11.40
2018-11-05T15:34:45.386Z,9.38
2018-11-05T15:40:12.895Z,6.90
2018-11-05T15:42:48.111Z,6.60
2018-11-05T15:45:19.060Z,7.43
2018-11-05T15:47:48.814Z,6.60
2018-11-05T15:50:21.863Z,6.87
2018-11-05T15:52:52.980Z,8.63
2018-11-05T15:55:21.649Z,8.03
2018-11-05T15:57:50.849Z,8.00
2018-11-05T16:00:21.799Z,7.80
2018-11-05T16:02:54.486Z,9.43
2018-11-05T16:05:24.042Z,9.60
2018-11-05T16:07:53.101Z,9.90
2018-11-05T16:10:22.488Z,9.57
2018-11-05T16:12:52.086Z,12.00
2018-11-05T16:15:21.161Z,8.73
2018-11-05T16:17:51.824Z,8.03
2018-11-05T16:20:22.378Z,7.90
2018-11-05T16:22:54.103Z,7.33
2018-11-05T16:25:23.136Z,7.60
2018-11-05T16:27:52.606Z,7.97
2018-11-05T16:30:22.616Z,9.47
2018-11-05T16:32:59.123Z,10.23
2018-11-05T16:35:29.145Z,12.20
2018-11-05T16:37:58.164Z,11.80
2018-11-05T16:40:27.353Z,9.20
2018-11-05T16:42:56.790Z,9.97
2018-11-05T16:45:25.697Z,9.60
2018-11-05T16:47:54.910Z,7.40
2018-11-05T16:50:25.940Z,8.53
2018-11-05T16:52:55.626Z,8.00
2018-11-05T16:55:25.286Z,6.35
2018-11-05T16:58:34.988Z,7.47
2018-11-05T17:01:04.682Z,8.53
2018-11-05T17:03:34.236Z,7.50
2018-11-05T17:06:04.452Z,8.10
2018-11-05T17:08:33.344Z,8.67
2018-11-05T17:11:04.292Z,8.27
2018-11-05T17:16:26.634Z,8.50
2018-11-05T17:18:55.595Z,8.97
2018-11-05T17:21:24.718Z,7.77
2018-11-05T17:23:53.670Z,7.50
2018-11-05T17:26:22.448Z,8.80
2018-11-05T17:28:51.700Z,10.77
2018-11-05T17:31:20.589Z,13.00
2018-11-05T17:34:12.622Z,12.30
2018-11-05T17:36:47.337Z,11.93
2018-11-05T17:39:26.855Z,13.50
2018-11-05T17:42:04.799Z,14.10
2018-11-05T17:44:46.026Z,12.80
2018-11-05T17:47:39.416Z,11.80
2018-11-05T17:50:18.093Z,11.70
2018-11-05T17:52:59.445Z,13.78
2018-11-05T17:55:34.417Z,14.07
2018-11-05T17:58:09.849Z,14.63
2018-11-05T18:04:09.911Z,10.79
2018-11-05T18:09:38.942Z,9.63
2018-11-05T18:12:10.947Z,9.13
2018-11-05T18:14:40.364Z,8.80
2018-11-05T18:17:09.672Z,10.97
2018-11-05T18:19:38.948Z,12.03
2018-11-05T18:22:11.190Z,12.97
2018-11-05T18:24:39.899Z,15.70
2018-11-05T18:27:08.507Z,12.87
2018-11-05T18:29:37.457Z,19.13
2018-11-05T18:32:06.088Z,17.52
2018-11-05T18:34:35.000Z,13.67
2018-11-05T18:37:03.716Z,10.70
2018-11-05T18:39:32.562Z,15.70
2018-11-05T18:42:02.539Z,13.70
2018-11-05T18:44:31.564Z,15.10
2018-11-05T18:47:00.397Z,17.30
2018-11-05T18:49:29.403Z,17.27
2018-11-05T18:51:58.421Z,17.17
2018-11-05T18:54:27.326Z,17.48
2018-11-05T18:56:56.371Z,18.27
2018-11-05T18:59:25.904Z,20.93
2018-11-05T19:01:59.519Z,19.67
2018-11-05T19:04:28.467Z,21.70
2018-11-05T19:06:57.967Z,19.60
2018-11-05T19:09:27.503Z,20.25
2018-11-05T19:11:56.714Z,20.33
2018-11-05T19:14:25.699Z,20.08
2018-11-05T19:16:58.683Z,19.70
2018-11-05T19:19:27.686Z,19.00
2018-11-05T19:21:56.919Z,20.63
2018-11-05T19:24:27.951Z,21.73
2018-11-05T19:26:56.856Z,19.93
2018-11-05T19:29:26.724Z,18.40
2018-11-05T19:31:55.828Z,20.00
2018-11-05T19:34:27.409Z,19.30
2018-11-05T19:36:56.627Z,19.67
2018-11-05T19:39:25.495Z,20.73
2018-11-05T19:41:54.813Z,18.77
2018-11-05T19:44:24.550Z,20.60
2018-11-05T19:46:54.005Z,19.30
2018-11-05T19:49:23.331Z,18.27
2018-11-05T19:51:52.825Z,17.00
2018-11-05T19:54:22.036Z,15.60
2018-11-05T19:56:51.137Z,17.65
2018-11-05T19:59:20.238Z,18.50
2018-11-05T20:01:52.162Z,16.50
2018-11-05T20:04:21.377Z,12.43
2018-11-05T20:06:50.129Z,12.13
2018-11-05T20:09:19.125Z,17.77
2018-11-05T20:11:47.800Z,14.70
2018-11-05T20:14:16.953Z,15.83
2018-11-05T20:16:46.236Z,13.70
2018-11-05T20:19:15.463Z,12.60
2018-11-05T20:21:44.432Z,16.03
2018-11-05T20:24:13.836Z,15.40
2018-11-05T20:26:42.754Z,15.53
2018-11-05T20:29:11.954Z,16.53
2018-11-05T20:31:41.703Z,18.63
2018-11-05T20:34:10.524Z,16.10
2018-11-05T20:36:39.070Z,15.27
2018-11-05T20:39:09.865Z,15.37
2018-11-05T20:41:40.227Z,13.60
2018-11-05T20:44:09.548Z,14.90
2018-11-05T20:46:39.108Z,14.27
2018-11-05T20:49:08.419Z,14.03
2018-11-05T20:51:37.882Z,13.67
2018-11-05T20:54:15.400Z,13.90
2018-11-05T20:56:44.523Z,13.13
2018-11-05T20:59:13.332Z,14.63
2018-11-05T21:01:42.291Z,13.17
2018-11-05T21:04:12.288Z,14.13
2018-11-05T21:06:41.386Z,13.17
2018-11-05T21:09:11.147Z,13.30
2018-11-05T21:11:40.290Z,13.47
2018-11-05T21:14:09.862Z,13.37
2018-11-05T21:16:39.081Z,13.55
2018-11-05T21:19:08.414Z,13.60
2018-11-05T21:21:37.771Z,12.70
2018-11-05T21:24:06.684Z,12.80
2018-11-05T21:26:35.682Z,12.10
2018-11-05T21:29:04.595Z,13.53
2018-11-05T21:31:33.614Z,13.63
2018-11-05T21:34:02.404Z,13.40
2018-11-05T21:36:31.239Z,13.80
2018-11-05T21:39:00.349Z,13.20
2018-11-05T21:41:29.248Z,14.03
2018-11-05T21:43:58.742Z,14.27
2018-11-05T21:46:27.376Z,13.40
2018-11-05T21:48:56.345Z,13.83
2018-11-05T21:51:25.893Z,13.30
2018-11-05T21:53:55.091Z,12.73
2018-11-05T21:56:24.481Z,12.70
2018-11-05T21:58:54.329Z,12.40
2018-11-05T22:01:24.278Z,13.67
2018-11-05T22:03:52.964Z,13.80
2018-11-05T22:06:21.630Z,11.97
2018-11-05T22:08:50.587Z,11.90
2018-11-05T22:11:19.486Z,12.47
2018-11-05T22:13:48.454Z,10.90
2018-11-05T22:16:17.080Z,10.10
2018-11-05T22:18:45.746Z,13.20
2018-11-05T22:21:14.470Z,15.40
2018-11-05T22:23:43.329Z,16.37
2018-11-05T22:26:12.124Z,16.50
2018-11-05T22:28:40.993Z,12.20
2018-11-05T22:31:10.197Z,12.27
2018-11-05T22:33:39.400Z,12.43
2018-11-05T22:36:08.253Z,16.73
2018-11-05T22:38:37.082Z,20.90
2018-11-05T22:41:07.008Z,20.63
2018-11-05T22:43:37.564Z,14.33
2018-11-05T22:46:06.717Z,14.77
2018-11-05T22:48:35.386Z,18.33
2018-11-05T22:51:04.849Z,20.37
2018-11-05T22:53:33.475Z,22.10
2018-11-05T22:56:02.237Z,18.80
2018-11-05T22:58:30.721Z,18.80
2018-11-05T23:01:02.946Z,18.47
2018-11-05T23:03:31.971Z,18.10
2018-11-05T23:06:01.258Z,23.15
2018-11-05T23:08:30.070Z,18.03
2018-11-05T23:10:59.046Z,19.30
2018-11-05T23:13:27.795Z,18.27
2018-11-05T23:15:56.349Z,18.07
2018-11-05T23:18:24.976Z,21.40
2018-11-05T23:20:54.227Z,14.67
2018-11-05T23:23:22.881Z,16.17
2018-11-05T23:25:51.448Z,13.60
2018-11-05T23:28:20.406Z,13.20
2018-11-05T23:30:48.965Z,13.30
2018-11-05T23:33:17.837Z,13.87
2018-11-05T23:35:46.569Z,13.20
2018-11-05T23:38:15.365Z,14.50
2018-11-05T23:40:44.017Z,15.17
2018-11-05T23:43:12.624Z,14.77
2018-11-05T23:45:41.339Z,14.10
2018-11-05T23:48:09.997Z,13.30
2018-11-05T23:50:38.885Z,13.70
2018-11-05T23:53:07.785Z,12.77
2018-11-05T23:55:36.587Z,12.77
2018-11-05T23:58:05.156Z,13.67
